sensor_id;sensor_type;location;lat;lon;timestamp;temperature;humidity
40932;DHT22;36257;46.052;12.540;2024-02-21T00:01:56;9.20;93.90
40932;DHT22;36257;46.052;12.540;2024-02-21T00:04:21;9.20;93.90
40932;DHT22;36257;46.052;12.540;2024-02-21T00:06:47;9.20;93.90
40932;DHT22;36257;46.052;12.540;2024-02-21T00:09:12;9.20;94.00
40932;DHT22;36257;46.052;12.540;2024-02-21T00:11:38;9.20;93.90
40932;DHT22;36257;46.052;12.540;2024-02-21T00:14:04;9.10;94.00
40932;DHT22;36257;46.052;12.540;2024-02-21T00:16:29;9.10;94.00
40932;DHT22;36257;46.052;12.540;2024-02-21T00:18:55;9.10;94.00
40932;DHT22;36257;46.052;12.540;2024-02-21T00:21:20;9.10;93.70
40932;DHT22;36257;46.052;12.540;2024-02-21T00:23:46;9.10;93.40
40932;DHT22;36257;46.052;12.540;2024-02-21T00:26:12;9.20;93.10
40932;DHT22;36257;46.052;12.540;2024-02-21T00:28:39;9.20;92.90
40932;DHT22;36257;46.052;12.540;2024-02-21T00:31:04;9.20;92.50
40932;DHT22;36257;46.052;12.540;2024-02-21T00:33:30;9.20;92.50
40932;DHT22;36257;46.052;12.540;2024-02-21T00:35:56;9.20;92.30
40932;DHT22;36257;46.052;12.540;2024-02-21T00:38:21;9.20;91.90
40932;DHT22;36257;46.052;12.540;2024-02-21T00:40:47;9.20;91.80
40932;DHT22;36257;46.052;12.540;2024-02-21T00:43:13;9.30;91.60
40932;DHT22;36257;46.052;12.540;2024-02-21T00:45:39;9.30;91.50
40932;DHT22;36257;46.052;12.540;2024-02-21T00:48:05;9.30;91.40
40932;DHT22;36257;46.052;12.540;2024-02-21T00:50:30;9.30;91.30
40932;DHT22;36257;46.052;12.540;2024-02-21T00:52:56;9.30;91.20
40932;DHT22;36257;46.052;12.540;2024-02-21T00:55:22;9.30;91.20
40932;DHT22;36257;46.052;12.540;2024-02-21T00:57:47;9.30;91.20
40932;DHT22;36257;46.052;12.540;2024-02-21T01:00:13;9.30;91.00
40932;DHT22;36257;46.052;12.540;2024-02-21T01:02:39;9.30;90.80
40932;DHT22;36257;46.052;12.540;2024-02-21T01:05:05;9.30;90.60
40932;DHT22;36257;46.052;12.540;2024-02-21T01:07:31;9.30;90.50
40932;DHT22;36257;46.052;12.540;2024-02-21T01:09:56;9.40;90.10
40932;DHT22;36257;46.052;12.540;2024-02-21T01:12:22;9.50;89.60
40932;DHT22;36257;46.052;12.540;2024-02-21T01:14:47;9.50;89.30
40932;DHT22;36257;46.052;12.540;2024-02-21T01:17:15;9.60;89.40
40932;DHT22;36257;46.052;12.540;2024-02-21T01:19:41;9.60;89.40
40932;DHT22;36257;46.052;12.540;2024-02-21T01:22:06;9.60;89.30
40932;DHT22;36257;46.052;12.540;2024-02-21T01:24:32;9.60;89.40
40932;DHT22;36257;46.052;12.540;2024-02-21T01:26:58;9.60;89.40
40932;DHT22;36257;46.052;12.540;2024-02-21T01:29:24;9.60;89.70
40932;DHT22;36257;46.052;12.540;2024-02-21T01:31:49;9.60;89.80
40932;DHT22;36257;46.052;12.540;2024-02-21T01:34:15;9.50;90.00
40932;DHT22;36257;46.052;12.540;2024-02-21T01:36:41;9.50;90.00
40932;DHT22;36257;46.052;12.540;2024-02-21T01:39:07;9.50;90.30
40932;DHT22;36257;46.052;12.540;2024-02-21T01:41:33;9.40;90.40
40932;DHT22;36257;46.052;12.540;2024-02-21T01:43:58;9.40;90.50
40932;DHT22;36257;46.052;12.540;2024-02-21T01:46:24;9.30;90.80
40932;DHT22;36257;46.052;12.540;2024-02-21T01:48:57;9.30;90.90
40932;DHT22;36257;46.052;12.540;2024-02-21T01:51:24;9.20;91.10
40932;DHT22;36257;46.052;12.540;2024-02-21T01:53:50;9.20;91.20
40932;DHT22;36257;46.052;12.540;2024-02-21T01:56:17;9.10;91.20
40932;DHT22;36257;46.052;12.540;2024-02-21T01:58:44;9.20;91.10
40932;DHT22;36257;46.052;12.540;2024-02-21T02:01:10;9.20;91.00
40932;DHT22;36257;46.052;12.540;2024-02-21T02:03:36;9.20;90.90
40932;DHT22;36257;46.052;12.540;2024-02-21T02:06:03;9.20;90.90
40932;DHT22;36257;46.052;12.540;2024-02-21T02:08:30;9.20;91.10
40932;DHT22;36257;46.052;12.540;2024-02-21T02:10:57;9.20;91.10
40932;DHT22;36257;46.052;12.540;2024-02-21T02:13:23;9.10;91.20
40932;DHT22;36257;46.052;12.540;2024-02-21T02:15:49;9.00;91.60
40932;DHT22;36257;46.052;12.540;2024-02-21T02:18:17;9.00;91.60
40932;DHT22;36257;46.052;12.540;2024-02-21T02:20:44;8.90;92.00
40932;DHT22;36257;46.052;12.540;2024-02-21T02:23:27;8.80;92.00
40932;DHT22;36257;46.052;12.540;2024-02-21T02:25:53;8.80;92.00
40932;DHT22;36257;46.052;12.540;2024-02-21T02:28:19;8.80;92.00
40932;DHT22;36257;46.052;12.540;2024-02-21T02:30:46;8.70;92.20
40932;DHT22;36257;46.052;12.540;2024-02-21T02:33:12;8.70;92.30
40932;DHT22;36257;46.052;12.540;2024-02-21T02:35:38;8.70;92.30
40932;DHT22;36257;46.052;12.540;2024-02-21T02:38:04;8.70;92.10
40932;DHT22;36257;46.052;12.540;2024-02-21T02:40:30;8.60;92.20
40932;DHT22;36257;46.052;12.540;2024-02-21T02:42:56;8.70;91.90
40932;DHT22;36257;46.052;12.540;2024-02-21T02:45:23;8.70;91.80
40932;DHT22;36257;46.052;12.540;2024-02-21T02:47:52;8.70;91.90
40932;DHT22;36257;46.052;12.540;2024-02-21T02:50:17;8.60;92.10
40932;DHT22;36257;46.052;12.540;2024-02-21T02:52:43;8.50;92.30
40932;DHT22;36257;46.052;12.540;2024-02-21T02:55:09;8.60;92.30
40932;DHT22;36257;46.052;12.540;2024-02-21T02:57:34;8.60;92.10
40932;DHT22;36257;46.052;12.540;2024-02-21T03:00:00;8.60;92.10
40932;DHT22;36257;46.052;12.540;2024-02-21T03:02:26;8.50;92.10
40932;DHT22;36257;46.052;12.540;2024-02-21T03:04:51;8.50;92.20
40932;DHT22;36257;46.052;12.540;2024-02-21T03:07:17;8.50;92.20
40932;DHT22;36257;46.052;12.540;2024-02-21T03:09:42;8.40;92.20
40932;DHT22;36257;46.052;12.540;2024-02-21T03:12:08;8.50;92.00
40932;DHT22;36257;46.052;12.540;2024-02-21T03:14:34;8.50;92.00
40932;DHT22;36257;46.052;12.540;2024-02-21T03:17:01;8.50;91.90
40932;DHT22;36257;46.052;12.540;2024-02-21T03:19:28;8.50;91.80
40932;DHT22;36257;46.052;12.540;2024-02-21T03:21:54;8.50;91.60
40932;DHT22;36257;46.052;12.540;2024-02-21T03:24:19;8.50;91.50
40932;DHT22;36257;46.052;12.540;2024-02-21T03:26:45;8.60;91.00
40932;DHT22;36257;46.052;12.540;2024-02-21T03:29:16;8.60;90.90
40932;DHT22;36257;46.052;12.540;2024-02-21T03:31:42;8.60;90.60
40932;DHT22;36257;46.052;12.540;2024-02-21T03:34:08;8.70;90.10
40932;DHT22;36257;46.052;12.540;2024-02-21T03:36:33;8.70;89.90
40932;DHT22;36257;46.052;12.540;2024-02-21T03:38:59;8.80;89.60
40932;DHT22;36257;46.052;12.540;2024-02-21T03:41:25;8.80;89.70
40932;DHT22;36257;46.052;12.540;2024-02-21T03:43:50;8.80;89.50
40932;DHT22;36257;46.052;12.540;2024-02-21T03:46:16;8.90;89.40
40932;DHT22;36257;46.052;12.540;2024-02-21T03:48:41;8.90;89.20
40932;DHT22;36257;46.052;12.540;2024-02-21T03:51:07;8.90;89.00
40932;DHT22;36257;46.052;12.540;2024-02-21T03:53:33;8.90;88.90
40932;DHT22;36257;46.052;12.540;2024-02-21T03:56:01;8.90;88.90
40932;DHT22;36257;46.052;12.540;2024-02-21T03:58:32;8.90;88.80
40932;DHT22;36257;46.052;12.540;2024-02-21T04:01:00;8.90;89.00
40932;DHT22;36257;46.052;12.540;2024-02-21T04:03:27;8.90;88.80
40932;DHT22;36257;46.052;12.540;2024-02-21T04:05:52;8.90;88.90
40932;DHT22;36257;46.052;12.540;2024-02-21T04:08:18;8.90;88.70
40932;DHT22;36257;46.052;12.540;2024-02-21T04:10:44;8.80;88.80
40932;DHT22;36257;46.052;12.540;2024-02-21T04:13:09;8.80;88.80
40932;DHT22;36257;46.052;12.540;2024-02-21T04:15:35;8.80;89.10
40932;DHT22;36257;46.052;12.540;2024-02-21T04:18:01;8.80;89.30
40932;DHT22;36257;46.052;12.540;2024-02-21T04:20:27;8.70;89.50
40932;DHT22;36257;46.052;12.540;2024-02-21T04:22:52;8.70;89.60
40932;DHT22;36257;46.052;12.540;2024-02-21T04:25:18;8.60;90.00
40932;DHT22;36257;46.052;12.540;2024-02-21T04:27:44;8.50;90.10
40932;DHT22;36257;46.052;12.540;2024-02-21T04:30:10;8.50;89.90
40932;DHT22;36257;46.052;12.540;2024-02-21T04:32:36;8.50;89.90
40932;DHT22;36257;46.052;12.540;2024-02-21T04:35:01;8.40;90.40
40932;DHT22;36257;46.052;12.540;2024-02-21T04:37:27;8.30;90.10
40932;DHT22;36257;46.052;12.540;2024-02-21T04:39:53;8.30;90.30
40932;DHT22;36257;46.052;12.540;2024-02-21T04:42:18;8.30;90.60
40932;DHT22;36257;46.052;12.540;2024-02-21T04:44:44;8.30;90.80
40932;DHT22;36257;46.052;12.540;2024-02-21T04:47:10;8.30;91.40
40932;DHT22;36257;46.052;12.540;2024-02-21T04:49:36;8.20;91.70
40932;DHT22;36257;46.052;12.540;2024-02-21T04:52:01;8.10;92.10
40932;DHT22;36257;46.052;12.540;2024-02-21T04:54:27;7.90;92.90
40932;DHT22;36257;46.052;12.540;2024-02-21T04:56:53;7.80;93.20
40932;DHT22;36257;46.052;12.540;2024-02-21T04:59:18;7.70;93.60
40932;DHT22;36257;46.052;12.540;2024-02-21T05:01:44;7.70;93.20
40932;DHT22;36257;46.052;12.540;2024-02-21T05:04:10;7.60;93.40
40932;DHT22;36257;46.052;12.540;2024-02-21T05:06:42;7.60;93.50
40932;DHT22;36257;46.052;12.540;2024-02-21T05:09:09;7.60;93.80
40932;DHT22;36257;46.052;12.540;2024-02-21T05:11:35;7.60;93.80
40932;DHT22;36257;46.052;12.540;2024-02-21T05:14:01;7.60;93.60
40932;DHT22;36257;46.052;12.540;2024-02-21T05:16:27;7.60;93.40
40932;DHT22;36257;46.052;12.540;2024-02-21T05:18:52;7.60;93.60
40932;DHT22;36257;46.052;12.540;2024-02-21T05:21:18;7.50;94.00
40932;DHT22;36257;46.052;12.540;2024-02-21T05:23:44;7.40;94.30
40932;DHT22;36257;46.052;12.540;2024-02-21T05:26:10;7.30;94.70
40932;DHT22;36257;46.052;12.540;2024-02-21T05:28:35;7.30;94.80
40932;DHT22;36257;46.052;12.540;2024-02-21T05:31:01;7.20;95.00
40932;DHT22;36257;46.052;12.540;2024-02-21T05:33:27;7.10;95.20
40932;DHT22;36257;46.052;12.540;2024-02-21T05:35:52;7.10;95.10
40932;DHT22;36257;46.052;12.540;2024-02-21T05:38:18;7.20;95.00
40932;DHT22;36257;46.052;12.540;2024-02-21T05:40:47;7.30;94.80
40932;DHT22;36257;46.052;12.540;2024-02-21T05:43:13;7.30;94.70
40932;DHT22;36257;46.052;12.540;2024-02-21T05:45:39;7.40;94.30
40932;DHT22;36257;46.052;12.540;2024-02-21T05:48:04;7.50;94.20
40932;DHT22;36257;46.052;12.540;2024-02-21T05:50:30;7.60;94.10
40932;DHT22;36257;46.052;12.540;2024-02-21T05:52:57;7.60;93.80
40932;DHT22;36257;46.052;12.540;2024-02-21T05:55:22;7.60;93.60
40932;DHT22;36257;46.052;12.540;2024-02-21T05:57:48;7.60;93.60
40932;DHT22;36257;46.052;12.540;2024-02-21T06:00:14;7.60;93.50
40932;DHT22;36257;46.052;12.540;2024-02-21T06:02:41;7.60;93.50
40932;DHT22;36257;46.052;12.540;2024-02-21T06:05:07;7.60;93.60
40932;DHT22;36257;46.052;12.540;2024-02-21T06:07:34;7.60;93.70
40932;DHT22;36257;46.052;12.540;2024-02-21T06:10:03;7.60;93.60
40932;DHT22;36257;46.052;12.540;2024-02-21T06:12:29;7.60;93.50
40932;DHT22;36257;46.052;12.540;2024-02-21T06:14:55;7.60;93.40
40932;DHT22;36257;46.052;12.540;2024-02-21T06:17:20;7.70;93.10
40932;DHT22;36257;46.052;12.540;2024-02-21T06:19:46;7.70;92.90
40932;DHT22;36257;46.052;12.540;2024-02-21T06:22:15;7.70;92.80
40932;DHT22;36257;46.052;12.540;2024-02-21T06:24:40;7.80;92.60
40932;DHT22;36257;46.052;12.540;2024-02-21T06:27:06;7.80;92.50
40932;DHT22;36257;46.052;12.540;2024-02-21T06:29:33;7.90;92.40
40932;DHT22;36257;46.052;12.540;2024-02-21T06:31:58;7.80;92.50
40932;DHT22;36257;46.052;12.540;2024-02-21T06:34:24;7.90;92.50
40932;DHT22;36257;46.052;12.540;2024-02-21T06:36:50;7.90;92.40
40932;DHT22;36257;46.052;12.540;2024-02-21T06:39:16;7.90;92.30
40932;DHT22;36257;46.052;12.540;2024-02-21T06:41:42;7.90;92.30
40932;DHT22;36257;46.052;12.540;2024-02-21T06:44:08;8.00;92.10
40932;DHT22;36257;46.052;12.540;2024-02-21T06:46:34;8.10;92.00
40932;DHT22;36257;46.052;12.540;2024-02-21T06:49:00;8.20;91.50
40932;DHT22;36257;46.052;12.540;2024-02-21T06:51:27;8.30;91.30
40932;DHT22;36257;46.052;12.540;2024-02-21T06:53:53;8.50;90.60
40932;DHT22;36257;46.052;12.540;2024-02-21T06:56:19;8.60;90.30
40932;DHT22;36257;46.052;12.540;2024-02-21T06:58:45;8.80;90.00
40932;DHT22;36257;46.052;12.540;2024-02-21T07:01:11;8.90;89.60
40932;DHT22;36257;46.052;12.540;2024-02-21T07:03:36;9.10;89.20
40932;DHT22;36257;46.052;12.540;2024-02-21T07:06:02;9.30;88.90
40932;DHT22;36257;46.052;12.540;2024-02-21T07:08:28;9.50;88.80
40932;DHT22;36257;46.052;12.540;2024-02-21T07:10:54;9.60;88.90
40932;DHT22;36257;46.052;12.540;2024-02-21T07:13:22;9.60;89.10
40932;DHT22;36257;46.052;12.540;2024-02-21T07:15:48;9.80;89.30
40932;DHT22;36257;46.052;12.540;2024-02-21T07:18:17;9.90;89.10
40932;DHT22;36257;46.052;12.540;2024-02-21T07:20:42;10.10;88.90
40932;DHT22;36257;46.052;12.540;2024-02-21T07:23:08;10.10;88.80
40932;DHT22;36257;46.052;12.540;2024-02-21T07:25:34;10.20;88.60
40932;DHT22;36257;46.052;12.540;2024-02-21T07:28:00;10.40;88.30
40932;DHT22;36257;46.052;12.540;2024-02-21T07:30:25;10.40;88.10
40932;DHT22;36257;46.052;12.540;2024-02-21T07:32:51;10.60;88.20
40932;DHT22;36257;46.052;12.540;2024-02-21T07:35:20;10.80;87.70
40932;DHT22;36257;46.052;12.540;2024-02-21T07:37:46;11.10;86.90
40932;DHT22;36257;46.052;12.540;2024-02-21T07:40:13;11.30;86.30
40932;DHT22;36257;46.052;12.540;2024-02-21T07:42:39;11.50;85.80
40932;DHT22;36257;46.052;12.540;2024-02-21T07:45:06;11.70;84.90
40932;DHT22;36257;46.052;12.540;2024-02-21T07:47:31;12.00;83.50
40932;DHT22;36257;46.052;12.540;2024-02-21T07:49:57;12.20;82.60
40932;DHT22;36257;46.052;12.540;2024-02-21T07:52:22;12.60;80.20
40932;DHT22;36257;46.052;12.540;2024-02-21T07:54:48;13.00;78.30
40932;DHT22;36257;46.052;12.540;2024-02-21T07:57:14;13.20;78.80
40932;DHT22;36257;46.052;12.540;2024-02-21T07:59:39;13.40;74.00
40932;DHT22;36257;46.052;12.540;2024-02-21T08:02:05;13.70;73.60
40932;DHT22;36257;46.052;12.540;2024-02-21T08:04:32;13.90;74.20
40932;DHT22;36257;46.052;12.540;2024-02-21T08:07:01;14.20;73.50
40932;DHT22;36257;46.052;12.540;2024-02-21T08:49:56;16.60;68.40
40932;DHT22;36257;46.052;12.540;2024-02-21T09:33:39;17.00;67.50
40932;DHT22;36257;46.052;12.540;2024-02-21T09:36:05;17.20;67.30
40932;DHT22;36257;46.052;12.540;2024-02-21T09:38:31;17.30;68.10
40932;DHT22;36257;46.052;12.540;2024-02-21T09:41:16;17.50;67.50
40932;DHT22;36257;46.052;12.540;2024-02-21T09:43:43;17.80;68.20
40932;DHT22;36257;46.052;12.540;2024-02-21T13:19:58;20.30;61.60
40932;DHT22;36257;46.052;12.540;2024-02-21T13:41:48;19.50;62.50
40932;DHT22;36257;46.052;12.540;2024-02-21T13:44:14;19.50;61.60
40932;DHT22;36257;46.052;12.540;2024-02-21T13:46:39;19.60;63.20
40932;DHT22;36257;46.052;12.540;2024-02-21T13:49:05;19.50;63.90
40932;DHT22;36257;46.052;12.540;2024-02-21T13:51:34;20.00;64.20
40932;DHT22;36257;46.052;12.540;2024-02-21T13:54:03;20.50;62.60
40932;DHT22;36257;46.052;12.540;2024-02-21T13:56:34;20.40;61.20
40932;DHT22;36257;46.052;12.540;2024-02-21T13:59:00;20.40;61.50
40932;DHT22;36257;46.052;12.540;2024-02-21T14:01:26;20.40;62.10
40932;DHT22;36257;46.052;12.540;2024-02-21T14:03:53;20.60;61.50
40932;DHT22;36257;46.052;12.540;2024-02-21T14:06:19;20.30;60.80
40932;DHT22;36257;46.052;12.540;2024-02-21T14:08:45;19.30;62.20
40932;DHT22;36257;46.052;12.540;2024-02-21T14:11:10;19.20;63.40
40932;DHT22;36257;46.052;12.540;2024-02-21T14:13:36;19.10;62.20
40932;DHT22;36257;46.052;12.540;2024-02-21T14:16:02;18.80;62.70
40932;DHT22;36257;46.052;12.540;2024-02-21T14:18:28;19.10;65.50
40932;DHT22;36257;46.052;12.540;2024-02-21T14:20:54;19.30;63.80
40932;DHT22;36257;46.052;12.540;2024-02-21T14:23:19;18.80;64.30
40932;DHT22;36257;46.052;12.540;2024-02-21T14:25:46;18.60;64.50
40932;DHT22;36257;46.052;12.540;2024-02-21T14:28:12;18.20;64.50
40932;DHT22;36257;46.052;12.540;2024-02-21T14:30:38;17.70;66.00
40932;DHT22;36257;46.052;12.540;2024-02-21T14:33:04;17.60;67.20
40932;DHT22;36257;46.052;12.540;2024-02-21T14:35:29;17.70;67.20
40932;DHT22;36257;46.052;12.540;2024-02-21T14:37:55;17.70;67.90
40932;DHT22;36257;46.052;12.540;2024-02-21T14:40:23;17.30;66.30
40932;DHT22;36257;46.052;12.540;2024-02-21T14:42:49;17.00;68.70
40932;DHT22;36257;46.052;12.540;2024-02-21T14:45:15;16.80;68.20
40932;DHT22;36257;46.052;12.540;2024-02-21T14:47:40;16.90;69.10
40932;DHT22;36257;46.052;12.540;2024-02-21T14:50:06;16.70;68.70
40932;DHT22;36257;46.052;12.540;2024-02-21T14:52:32;16.30;68.50
40932;DHT22;36257;46.052;12.540;2024-02-21T14:54:58;16.20;69.30
40932;DHT22;36257;46.052;12.540;2024-02-21T14:57:24;16.10;70.30
40932;DHT22;36257;46.052;12.540;2024-02-21T14:59:50;16.20;70.40
40932;DHT22;36257;46.052;12.540;2024-02-21T15:02:22;16.10;70.20
40932;DHT22;36257;46.052;12.540;2024-02-21T15:04:48;16.10;70.80
40932;DHT22;36257;46.052;12.540;2024-02-21T15:07:14;15.90;70.30
40932;DHT22;36257;46.052;12.540;2024-02-21T15:09:40;15.90;71.50
40932;DHT22;36257;46.052;12.540;2024-02-21T15:12:06;16.00;72.50
40932;DHT22;36257;46.052;12.540;2024-02-21T15:14:32;16.10;70.80
40932;DHT22;36257;46.052;12.540;2024-02-21T15:16:57;16.00;70.30
40932;DHT22;36257;46.052;12.540;2024-02-21T15:19:23;15.90;71.40
40932;DHT22;36257;46.052;12.540;2024-02-21T15:21:49;15.80;70.80
40932;DHT22;36257;46.052;12.540;2024-02-21T15:24:15;15.70;71.70
40932;DHT22;36257;46.052;12.540;2024-02-21T15:26:42;15.70;71.20
40932;DHT22;36257;46.052;12.540;2024-02-21T15:29:08;15.60;72.50
40932;DHT22;36257;46.052;12.540;2024-02-21T15:31:34;15.40;71.60
40932;DHT22;36257;46.052;12.540;2024-02-21T15:34:00;15.30;73.60
40932;DHT22;36257;46.052;12.540;2024-02-21T15:36:25;15.20;73.80
40932;DHT22;36257;46.052;12.540;2024-02-21T15:38:53;15.10;73.60
40932;DHT22;36257;46.052;12.540;2024-02-21T15:41:21;15.10;73.40
40932;DHT22;36257;46.052;12.540;2024-02-21T15:47:12;15.10;75.10
40932;DHT22;36257;46.052;12.540;2024-02-21T15:49:45;15.10;74.90
40932;DHT22;36257;46.052;12.540;2024-02-21T16:28:48;14.90;77.90
40932;DHT22;36257;46.052;12.540;2024-02-21T16:44:32;14.30;78.90
40932;DHT22;36257;46.052;12.540;2024-02-21T16:46:58;14.20;78.80
40932;DHT22;36257;46.052;12.540;2024-02-21T16:49:24;14.10;79.20
40932;DHT22;36257;46.052;12.540;2024-02-21T16:51:51;14.00;79.50
40932;DHT22;36257;46.052;12.540;2024-02-21T16:54:26;13.90;79.70
40932;DHT22;36257;46.052;12.540;2024-02-21T16:56:52;13.80;79.90
40932;DHT22;36257;46.052;12.540;2024-02-21T16:59:17;13.80;80.30
40932;DHT22;36257;46.052;12.540;2024-02-21T17:01:44;13.70;80.50
40932;DHT22;36257;46.052;12.540;2024-02-21T17:04:10;13.60;80.90
40932;DHT22;36257;46.052;12.540;2024-02-21T17:06:36;13.30;81.70
40932;DHT22;36257;46.052;12.540;2024-02-21T17:09:02;13.30;81.90
40932;DHT22;36257;46.052;12.540;2024-02-21T17:11:28;13.20;82.40
40932;DHT22;36257;46.052;12.540;2024-02-21T17:13:54;13.20;82.70
40932;DHT22;36257;46.052;12.540;2024-02-21T17:16:20;13.10;82.70
40932;DHT22;36257;46.052;12.540;2024-02-21T17:18:46;13.00;82.80
40932;DHT22;36257;46.052;12.540;2024-02-21T17:21:12;13.00;82.90
40932;DHT22;36257;46.052;12.540;2024-02-21T17:23:38;13.00;82.70
40932;DHT22;36257;46.052;12.540;2024-02-21T17:26:05;12.90;82.80
40932;DHT22;36257;46.052;12.540;2024-02-21T17:28:31;12.70;83.70
40932;DHT22;36257;46.052;12.540;2024-02-21T17:30:57;12.60;83.40
40932;DHT22;36257;46.052;12.540;2024-02-21T17:33:22;12.50;84.60
40932;DHT22;36257;46.052;12.540;2024-02-21T17:35:48;12.40;84.90
40932;DHT22;36257;46.052;12.540;2024-02-21T17:38:18;12.40;85.50
40932;DHT22;36257;46.052;12.540;2024-02-21T17:40:44;12.40;85.70
40932;DHT22;36257;46.052;12.540;2024-02-21T17:43:10;12.30;85.20
40932;DHT22;36257;46.052;12.540;2024-02-21T17:45:37;12.30;84.90
40932;DHT22;36257;46.052;12.540;2024-02-21T17:48:05;12.10;86.00
40932;DHT22;36257;46.052;12.540;2024-02-21T17:50:31;12.00;86.30
40932;DHT22;36257;46.052;12.540;2024-02-21T17:52:56;11.90;86.50
40932;DHT22;36257;46.052;12.540;2024-02-21T17:55:22;11.90;86.90
40932;DHT22;36257;46.052;12.540;2024-02-21T17:57:47;11.80;87.00
40932;DHT22;36257;46.052;12.540;2024-02-21T18:00:15;11.80;87.00
40932;DHT22;36257;46.052;12.540;2024-02-21T18:02:41;11.80;86.80
40932;DHT22;36257;46.052;12.540;2024-02-21T18:05:07;11.90;86.80
40932;DHT22;36257;46.052;12.540;2024-02-21T18:07:33;11.90;86.90
40932;DHT22;36257;46.052;12.540;2024-02-21T18:09:58;11.80;87.10
40932;DHT22;36257;46.052;12.540;2024-02-21T18:12:24;11.70;87.60
40932;DHT22;36257;46.052;12.540;2024-02-21T18:14:50;11.60;87.50
40932;DHT22;36257;46.052;12.540;2024-02-21T18:17:16;11.40;87.80
40932;DHT22;36257;46.052;12.540;2024-02-21T18:19:41;11.40;88.20
40932;DHT22;36257;46.052;12.540;2024-02-21T18:22:07;11.30;88.40
40932;DHT22;36257;46.052;12.540;2024-02-21T18:24:34;11.20;88.80
40932;DHT22;36257;46.052;12.540;2024-02-21T18:26:59;11.10;88.60
40932;DHT22;36257;46.052;12.540;2024-02-21T18:29:25;11.00;88.90
40932;DHT22;36257;46.052;12.540;2024-02-21T18:31:53;10.90;89.50
40932;DHT22;36257;46.052;12.540;2024-02-21T18:34:19;10.80;89.70
40932;DHT22;36257;46.052;12.540;2024-02-21T18:36:44;10.70;89.70
40932;DHT22;36257;46.052;12.540;2024-02-21T18:39:14;10.70;89.70
40932;DHT22;36257;46.052;12.540;2024-02-21T18:41:40;10.60;90.00
40932;DHT22;36257;46.052;12.540;2024-02-21T18:44:10;10.60;90.20
40932;DHT22;36257;46.052;12.540;2024-02-21T18:46:38;10.50;90.40
40932;DHT22;36257;46.052;12.540;2024-02-21T18:49:05;10.40;90.90
40932;DHT22;36257;46.052;12.540;2024-02-21T18:51:30;10.40;91.30
40932;DHT22;36257;46.052;12.540;2024-02-21T18:53:57;10.30;91.20
40932;DHT22;36257;46.052;12.540;2024-02-21T18:56:22;10.30;91.40
40932;DHT22;36257;46.052;12.540;2024-02-21T18:58:52;10.20;91.60
40932;DHT22;36257;46.052;12.540;2024-02-21T19:01:18;10.20;91.70
40932;DHT22;36257;46.052;12.540;2024-02-21T19:03:46;10.30;91.90
40932;DHT22;36257;46.052;12.540;2024-02-21T19:06:12;10.30;91.90
40932;DHT22;36257;46.052;12.540;2024-02-21T19:08:41;10.40;91.70
40932;DHT22;36257;46.052;12.540;2024-02-21T19:11:07;10.30;91.70
40932;DHT22;36257;46.052;12.540;2024-02-21T19:13:32;10.30;91.70
40932;DHT22;36257;46.052;12.540;2024-02-21T19:15:58;10.40;91.50
40932;DHT22;36257;46.052;12.540;2024-02-21T19:18:24;10.30;91.60
40932;DHT22;36257;46.052;12.540;2024-02-21T19:20:49;10.30;91.70
40932;DHT22;36257;46.052;12.540;2024-02-21T19:23:15;10.30;91.50
40932;DHT22;36257;46.052;12.540;2024-02-21T19:25:40;10.20;91.20
40932;DHT22;36257;46.052;12.540;2024-02-21T19:28:08;10.10;91.40
40932;DHT22;36257;46.052;12.540;2024-02-21T19:30:39;10.00;91.80
40932;DHT22;36257;46.052;12.540;2024-02-21T19:33:08;9.90;92.40
40932;DHT22;36257;46.052;12.540;2024-02-21T19:35:37;9.80;92.80
40932;DHT22;36257;46.052;12.540;2024-02-21T19:38:05;9.80;92.90
40932;DHT22;36257;46.052;12.540;2024-02-21T19:40:34;9.70;93.50
40932;DHT22;36257;46.052;12.540;2024-02-21T19:43:00;9.70;93.60
40932;DHT22;36257;46.052;12.540;2024-02-21T19:45:27;9.60;93.80
40932;DHT22;36257;46.052;12.540;2024-02-21T19:47:53;9.50;93.80
40932;DHT22;36257;46.052;12.540;2024-02-21T19:50:19;9.50;93.50
40932;DHT22;36257;46.052;12.540;2024-02-21T19:52:50;9.30;93.70
40932;DHT22;36257;46.052;12.540;2024-02-21T19:55:17;9.20;94.30
40932;DHT22;36257;46.052;12.540;2024-02-21T19:57:43;9.20;94.60
40932;DHT22;36257;46.052;12.540;2024-02-21T20:00:11;9.10;94.60
40932;DHT22;36257;46.052;12.540;2024-02-21T20:02:37;9.00;94.90
40932;DHT22;36257;46.052;12.540;2024-02-21T20:05:03;8.90;95.40
40932;DHT22;36257;46.052;12.540;2024-02-21T20:07:29;8.80;96.00
40932;DHT22;36257;46.052;12.540;2024-02-21T20:09:54;8.80;96.30
40932;DHT22;36257;46.052;12.540;2024-02-21T20:12:20;8.70;96.50
40932;DHT22;36257;46.052;12.540;2024-02-21T20:14:46;8.70;96.50
40932;DHT22;36257;46.052;12.540;2024-02-21T20:17:12;8.70;96.70
40932;DHT22;36257;46.052;12.540;2024-02-21T20:19:38;8.70;96.70
40932;DHT22;36257;46.052;12.540;2024-02-21T20:22:03;8.70;96.50
40932;DHT22;36257;46.052;12.540;2024-02-21T20:24:31;8.80;96.40
40932;DHT22;36257;46.052;12.540;2024-02-21T20:26:57;8.80;96.40
40932;DHT22;36257;46.052;12.540;2024-02-21T20:29:31;8.80;96.30
40932;DHT22;36257;46.052;12.540;2024-02-21T20:31:56;8.80;96.30
40932;DHT22;36257;46.052;12.540;2024-02-21T20:34:24;8.70;96.40
40932;DHT22;36257;46.052;12.540;2024-02-21T20:36:55;8.80;96.40
40932;DHT22;36257;46.052;12.540;2024-02-21T20:39:21;8.80;96.50
40932;DHT22;36257;46.052;12.540;2024-02-21T20:41:47;8.70;96.80
40932;DHT22;36257;46.052;12.540;2024-02-21T20:44:12;8.70;96.90
40932;DHT22;36257;46.052;12.540;2024-02-21T20:46:38;8.80;97.30
40932;DHT22;36257;46.052;12.540;2024-02-21T20:49:04;8.80;97.70
40932;DHT22;36257;46.052;12.540;2024-02-21T20:51:29;8.80;97.90
40932;DHT22;36257;46.052;12.540;2024-02-21T20:53:55;8.90;98.00
40932;DHT22;36257;46.052;12.540;2024-02-21T20:56:21;8.90;97.90
40932;DHT22;36257;46.052;12.540;2024-02-21T20:58:47;8.90;97.80
40932;DHT22;36257;46.052;12.540;2024-02-21T21:01:13;9.00;97.80
40932;DHT22;36257;46.052;12.540;2024-02-21T21:03:40;9.10;97.50
40932;DHT22;36257;46.052;12.540;2024-02-21T21:06:06;9.20;97.50
40932;DHT22;36257;46.052;12.540;2024-02-21T21:08:32;9.20;97.40
40932;DHT22;36257;46.052;12.540;2024-02-21T21:10:58;9.20;97.70
40932;DHT22;36257;46.052;12.540;2024-02-21T21:13:24;9.20;98.40
40932;DHT22;36257;46.052;12.540;2024-02-21T21:15:49;9.30;98.20
40932;DHT22;36257;46.052;12.540;2024-02-21T21:18:16;9.30;98.40
40932;DHT22;36257;46.052;12.540;2024-02-21T21:20:41;9.30;98.90
40932;DHT22;36257;46.052;12.540;2024-02-21T21:23:07;9.30;99.10
40932;DHT22;36257;46.052;12.540;2024-02-21T21:25:34;9.30;99.00
40932;DHT22;36257;46.052;12.540;2024-02-21T21:28:04;9.40;99.50